Terminal Aerodrome Forecast
Issued by NWS Sioux Falls, SD

Home | Current Version | Previous Version | Text Only | Print | Product List | Glossary Off
Versions: 1 2 3 4 5 6 7 8 9 10 11 12 13 14 15 16 17 18 19

000
FTUS43 KFSD 242000 AAA
TAFHON
TAF AMD
KHON 242008Z 2420/2518 14017G27KT P6SM SCT080 BKN200
     FM250100 15013KT P6SM BKN200
     FM250700 12007KT P6SM BKN200
     FM251000 03005KT P6SM SCT250
     FM251400 35013G23KT P6SM SCT020=

USA.gov is the U.S. government's official web portal to all federal, state and local government web resources and services.